Time;durP1;ratioP1;P1;durP2;ratioP2;P2;SDS_P1;SDS_P2;PMS_P1;PMS_P2;Temp;Humidity;BMP_temperature;BMP_pressure;BME280_temperature;BME280_humidity;BME280_pressure;Samples;Min_cycle;Max_cycle;Signal;HPM_P1;HPM_P2
2023/01/18 00:00:51;;;;;;;8.20;3.80;;;0.90;99.90;;;;;;5015065;28;20095;-74
2023/01/18 00:03:17;;;;;;;6.60;3.58;;;1.10;99.90;;;;;;5030917;28;20451;-74
2023/01/18 00:05:42;;;;;;;4.90;3.10;;;1.10;99.90;;;;;;5031419;28;20045;-74
2023/01/18 00:08:15;;;;;;;5.38;3.20;;;1.00;99.90;;;;;;5031558;28;20046;-75
2023/01/18 00:10:41;;;;;;;6.10;3.22;;;1.10;99.90;;;;;;5031304;28;20042;-75
2023/01/18 00:13:06;;;;;;;8.15;3.53;;;1.10;99.90;;;;;;5013961;28;20090;-74
2023/01/18 00:15:32;;;;;;;7.68;3.03;;;1.00;99.90;;;;;;5031231;28;20048;-75
2023/01/18 00:17:58;;;;;;;5.05;3.17;;;1.00;99.90;;;;;;5031149;28;20029;-75
2023/01/18 00:20:25;;;;;;;7.88;3.35;;;1.10;99.90;;;;;;5031195;28;20610;-75
2023/01/18 00:22:51;;;;;;;5.60;3.88;;;0.90;99.90;;;;;;5030422;28;20049;-75
2023/01/18 00:25:18;;;;;;;5.50;3.42;;;1.00;99.90;;;;;;5031403;28;20412;-75
2023/01/18 00:27:47;;;;;;;5.40;3.80;;;0.90;99.90;;;;;;5030739;28;20052;-75
2023/01/18 00:30:13;;;;;;;5.43;3.40;;;0.90;99.90;;;;;;5030920;28;20041;-75
2023/01/18 00:32:39;;;;;;;9.80;4.70;;;1.00;99.90;;;;;;5030315;28;20041;-75
2023/01/18 00:35:06;;;;;;;5.68;3.20;;;0.90;99.90;;;;;;5030980;28;20064;-75
2023/01/18 00:37:35;;;;;;;4.68;4.10;;;1.00;99.90;;;;;;5030767;28;20618;-75
2023/01/18 00:40:02;;;;;;;6.75;3.67;;;0.80;99.90;;;;;;5030782;28;20049;-75
2023/01/18 00:45:12;;;;;;;7.10;4.13;;;0.90;99.90;;;;;;5030732;28;20052;-75
2023/01/18 00:47:37;;;;;;;7.50;4.22;;;0.80;99.90;;;;;;5030875;28;20041;-75
2023/01/18 00:50:03;;;;;;;6.50;3.92;;;0.90;99.90;;;;;;5030551;28;20554;-75
2023/01/18 00:52:29;;;;;;;7.00;3.80;;;0.80;99.90;;;;;;5029795;28;20691;-75
2023/01/18 00:54:55;;;;;;;5.30;3.72;;;0.90;99.90;;;;;;5030828;28;20093;-75
2023/01/18 00:57:20;;;;;;;7.90;4.38;;;0.70;99.90;;;;;;5030746;28;20049;-74
2023/01/18 00:59:46;;;;;;;8.15;4.07;;;0.80;99.90;;;;;;5030417;28;20487;-75
2023/01/18 01:02:12;;;;;;;6.28;3.78;;;0.90;99.90;;;;;;5030602;28;20495;-75
2023/01/18 01:07:22;;;;;;;4.70;3.80;;;0.70;99.90;;;;;;5030301;28;20132;-75
2023/01/18 01:09:47;;;;;;;6.10;4.03;;;0.90;99.90;;;;;;5030233;28;20128;-75
2023/01/18 01:26:09;;;;;;;6.25;4.30;;;0.70;99.90;;;;;;5030164;28;20183;-75
2023/01/18 01:28:49;;;;;;;6.78;4.35;;;0.70;99.90;;;;;;5052677;23;20049;-74
2023/01/18 01:31:16;;;;;;;6.05;3.67;;;0.70;99.90;;;;;;5050250;28;20072;-74
2023/01/18 01:33:43;;;;;;;6.88;4.57;;;0.70;99.90;;;;;;5049466;28;20041;-74
2023/01/18 01:36:12;;;;;;;7.53;4.53;;;0.70;99.90;;;;;;5050209;28;20045;-74
2023/01/18 01:38:38;;;;;;;7.47;4.43;;;0.80;99.90;;;;;;5055471;28;20037;-75
2023/01/18 01:41:12;;;;;;;5.68;4.68;;;0.80;99.90;;;;;;5070048;28;20094;-74
2023/01/18 01:43:51;;;;;;;6.40;4.60;;;0.80;99.90;;;;;;5069414;28;20090;-74
2023/01/18 01:46:51;;;;;;;6.32;5.00;;;0.90;99.90;;;;;;5070067;28;20498;-74
2023/01/18 01:49:28;;;;;;;6.95;4.60;;;0.90;99.90;;;;;;5069779;28;20045;-74
2023/01/18 01:52:06;;;;;;;6.75;4.78;;;0.80;99.90;;;;;;5070267;28;20040;-74
2023/01/18 01:54:40;;;;;;;6.57;4.68;;;0.70;99.90;;;;;;5069362;28;20375;-74
2023/01/18 01:57:15;;;;;;;9.25;6.47;;;0.90;99.90;;;;;;5070139;28;20037;-74
2023/01/18 01:59:46;;;;;;;6.85;4.68;;;0.70;99.90;;;;;;5071034;28;20048;-74
2023/01/18 02:02:12;;;;;;;6.85;5.25;;;0.70;99.90;;;;;;5069944;28;20153;-74
2023/01/18 02:04:43;;;;;;;6.85;5.13;;;0.70;99.90;;;;;;5069231;28;20080;-74
2023/01/18 02:07:09;;;;;;;6.70;5.10;;;0.80;99.90;;;;;;5069927;28;20044;-74
2023/01/18 02:09:35;;;;;;;6.07;4.75;;;0.70;99.90;;;;;;5069641;28;20036;-73
2023/01/18 02:12:01;;;;;;;8.07;4.88;;;0.80;99.90;;;;;;5069633;28;20047;-74
2023/01/18 02:14:28;;;;;;;8.10;6.82;;;0.70;99.90;;;;;;5069273;28;20044;-74
2023/01/18 02:17:27;;;;;;;7.43;5.68;;;0.60;99.90;;;;;;5071077;28;20043;-74
2023/01/18 02:20:30;;;;;;;5.72;4.70;;;0.50;99.90;;;;;;5073427;28;20040;-74
2023/01/18 02:23:10;;;;;;;7.35;5.35;;;0.60;99.90;;;;;;5073062;28;20036;-74
2023/01/18 02:26:03;;;;;;;6.03;5.43;;;0.50;99.90;;;;;;5073398;28;20081;-74
2023/01/18 02:28:34;;;;;;;9.70;5.65;;;0.50;99.90;;;;;;5073135;28;20044;-74
2023/01/18 02:31:22;;;;;;;9.23;5.60;;;0.40;99.90;;;;;;5073207;28;20072;-74
2023/01/18 02:34:21;;;;;;;15.85;5.93;;;0.50;99.90;;;;;;5073896;28;20039;-74
2023/01/18 02:37:08;;;;;;;9.60;6.93;;;0.60;99.90;;;;;;5050408;28;20044;-74
2023/01/18 02:39:46;;;;;;;9.70;5.20;;;0.60;99.90;;;;;;5056300;28;20044;-74
2023/01/18 02:48:04;;;;;;;8.85;6.63;;;0.60;99.90;;;;;;5072878;28;20056;-74
2023/01/18 02:50:30;;;;;;;10.27;6.85;;;0.50;99.90;;;;;;5072656;28;20037;-74
2023/01/18 02:52:55;;;;;;;10.52;6.40;;;0.40;99.90;;;;;;5055569;28;20040;-74
2023/01/18 02:55:37;;;;;;;8.23;6.63;;;0.50;99.90;;;;;;5072845;28;20040;-74
2023/01/18 02:58:17;;;;;;;9.57;6.25;;;0.40;99.90;;;;;;5073004;28;20502;-74
2023/01/18 03:00:47;;;;;;;7.85;6.70;;;0.50;99.90;;;;;;5072658;28;20101;-74
2023/01/18 03:03:15;;;;;;;9.13;6.60;;;0.40;99.90;;;;;;5071907;28;20040;-74
2023/01/18 03:05:45;;;;;;;8.95;6.78;;;0.40;99.90;;;;;;5072535;28;20040;-74
2023/01/18 03:08:25;;;;;;;8.27;6.05;;;0.40;99.90;;;;;;5072664;28;20398;-74
2023/01/18 03:11:01;;;;;;;12.35;8.27;;;0.30;99.90;;;;;;5072462;28;20064;-74
2023/01/18 03:13:40;;;;;;;9.60;5.60;;;0.50;99.90;;;;;;5071963;28;20604;-75
2023/01/18 03:16:17;;;;;;;9.25;6.28;;;0.30;99.90;;;;;;5072518;28;20036;-74
2023/01/18 03:18:59;;;;;;;8.10;5.53;;;0.40;99.90;;;;;;5055805;28;20587;-74
2023/01/18 03:21:36;;;;;;;8.85;6.47;;;0.30;99.90;;;;;;5072553;28;20071;-74
2023/01/18 03:24:05;;;;;;;9.80;5.93;;;0.30;99.90;;;;;;5055083;28;20103;-74
2023/01/18 03:26:39;;;;;;;12.70;7.30;;;0.50;99.90;;;;;;5055382;28;20059;-74
2023/01/18 03:34:58;;;;;;;8.25;6.35;;;0.40;99.90;;;;;;5071894;28;20044;-74
2023/01/18 03:37:36;;;;;;;11.85;6.82;;;0.40;99.90;;;;;;5071680;28;20532;-74
2023/01/18 03:40:10;;;;;;;12.75;8.95;;;0.40;99.90;;;;;;5071706;28;20044;-74
2023/01/18 03:42:47;;;;;;;12.45;7.03;;;0.30;99.90;;;;;;5071273;28;20579;-74
2023/01/18 03:45:36;;;;;;;10.75;6.70;;;0.30;99.90;;;;;;5071642;28;20120;-75
2023/01/18 03:48:03;;;;;;;8.93;6.95;;;0.30;99.90;;;;;;5071775;28;20040;-74
2023/01/18 03:50:48;;;;;;;11.55;6.50;;;0.20;99.90;;;;;;5054681;28;20040;-74
2023/01/18 03:53:23;;;;;;;10.15;6.50;;;0.40;99.90;;;;;;5070918;28;20039;-74
2023/01/18 03:55:54;;;;;;;10.95;6.60;;;0.40;99.90;;;;;;5055193;28;20398;-74
2023/01/18 03:58:24;;;;;;;11.57;7.95;;;0.20;99.90;;;;;;5071609;28;20592;-74
2023/01/18 04:00:51;;;;;;;9.82;6.93;;;0.40;99.90;;;;;;5071704;28;20549;-74
2023/01/18 04:03:17;;;;;;;11.20;6.80;;;0.20;99.90;;;;;;5070525;28;20044;-74
2023/01/18 04:05:43;;;;;;;12.18;6.78;;;0.20;99.90;;;;;;5071261;28;20055;-74
2023/01/18 04:08:08;;;;;;;9.60;6.53;;;0.20;99.90;;;;;;5071099;28;20105;-74
2023/01/18 04:10:34;;;;;;;9.57;6.80;;;0.40;99.90;;;;;;5071051;28;20068;-75
2023/01/18 04:12:59;;;;;;;10.30;7.30;;;0.40;99.90;;;;;;5070229;28;20407;-74
2023/01/18 04:15:25;;;;;;;10.60;6.70;;;0.30;99.90;;;;;;5054435;28;20068;-74
2023/01/18 04:17:54;;;;;;;8.95;6.43;;;0.30;99.90;;;;;;5070954;28;20072;-74
2023/01/18 04:20:20;;;;;;;9.60;6.93;;;0.40;99.90;;;;;;5070850;28;20089;-74
2023/01/18 04:22:50;;;;;;;11.27;8.20;;;0.40;99.90;;;;;;5070111;28;20048;-74
2023/01/18 04:25:16;;;;;;;9.10;6.97;;;0.40;99.90;;;;;;5070970;28;20502;-74
2023/01/18 04:27:41;;;;;;;11.05;7.13;;;0.40;99.90;;;;;;5071095;28;20051;-74
2023/01/18 04:30:08;;;;;;;11.13;7.63;;;0.20;99.90;;;;;;5070552;28;20041;-75
2023/01/18 04:32:33;;;;;;;10.70;6.63;;;0.30;99.90;;;;;;5069874;28;20040;-74
2023/01/18 04:34:59;;;;;;;10.40;7.00;;;0.30;99.90;;;;;;5070906;28;20063;-74
2023/01/18 04:37:29;;;;;;;10.95;7.20;;;0.50;99.90;;;;;;5053865;28;20040;-74
2023/01/18 04:39:55;;;;;;;12.20;8.57;;;0.30;99.90;;;;;;5070249;28;20068;-74
2023/01/18 04:42:21;;;;;;;9.70;7.28;;;0.40;99.90;;;;;;5069976;28;20076;-74
2023/01/18 04:44:46;;;;;;;11.13;7.78;;;0.30;99.90;;;;;;5053894;28;20043;-74
2023/01/18 04:47:12;;;;;;;11.50;7.35;;;0.30;99.90;;;;;;5070408;28;20041;-74
2023/01/18 04:49:37;;;;;;;12.95;7.35;;;0.40;99.90;;;;;;5070330;28;20430;-74
2023/01/18 04:52:06;;;;;;;8.70;6.93;;;0.30;99.90;;;;;;5071696;28;20040;-74
2023/01/18 04:54:31;;;;;;;11.52;7.53;;;0.50;99.90;;;;;;5070453;28;20052;-74
2023/01/18 04:56:57;;;;;;;11.98;8.43;;;0.40;99.90;;;;;;5070409;28;20036;-74
2023/01/18 04:59:22;;;;;;;13.05;7.45;;;0.40;99.90;;;;;;5070472;28;20095;-74
2023/01/18 05:01:48;;;;;;;12.32;8.68;;;0.20;99.90;;;;;;5070267;28;20082;-74
2023/01/18 05:04:13;;;;;;;13.60;8.90;;;0.30;99.90;;;;;;5052978;28;20401;-74
2023/01/18 05:06:39;;;;;;;17.73;9.40;;;0.20;99.90;;;;;;5070161;28;20037;-74
2023/01/18 05:09:05;;;;;;;15.20;8.32;;;0.10;99.90;;;;;;5070346;28;20040;-74
2023/01/18 05:11:31;;;;;;;11.77;8.18;;;0.20;99.90;;;;;;5053376;28;20573;-74
2023/01/18 05:13:56;;;;;;;13.35;7.65;;;0.30;99.90;;;;;;5070812;28;20111;-74
2023/01/18 05:16:22;;;;;;;13.25;8.23;;;0.30;99.90;;;;;;5071558;28;20383;-74
2023/01/18 05:18:48;;;;;;;13.90;8.43;;;0.20;99.90;;;;;;5071408;28;20514;-74
2023/01/18 05:21:14;;;;;;;11.85;8.73;;;0.30;99.90;;;;;;5069991;28;20051;-74
2023/01/18 05:23:40;;;;;;;15.25;9.00;;;0.20;99.90;;;;;;5069207;28;20052;-74
2023/01/18 05:26:13;;;;;;;13.10;8.85;;;0.20;99.90;;;;;;5070294;28;20040;-75
2023/01/18 05:28:40;;;;;;;13.13;8.18;;;0.20;99.90;;;;;;5069853;28;20044;-75
2023/01/18 05:31:05;;;;;;;11.07;9.38;;;0.20;99.90;;;;;;5069957;28;20032;-74
2023/01/18 05:33:31;;;;;;;12.48;8.25;;;0.20;99.90;;;;;;5069229;28;20064;-74
2023/01/18 05:35:57;;;;;;;15.07;8.45;;;0.30;99.90;;;;;;5070218;28;20135;-74
2023/01/18 05:38:22;;;;;;;13.38;8.50;;;0.30;99.90;;;;;;5053172;28;20494;-74
2023/01/18 05:40:53;;;;;;;14.65;8.65;;;0.20;99.90;;;;;;5069982;28;20125;-74
2023/01/18 05:43:24;;;;;;;11.93;8.00;;;0.40;99.90;;;;;;5052498;28;20094;-74
2023/01/18 05:45:50;;;;;;;14.40;9.27;;;0.40;99.90;;;;;;5069879;28;20127;-74
2023/01/18 05:48:16;;;;;;;12.65;9.85;;;0.20;99.90;;;;;;5069995;28;20123;-74
2023/01/18 05:50:43;;;;;;;13.45;8.65;;;0.20;99.90;;;;;;5069466;28;20094;-74
2023/01/18 05:53:10;;;;;;;14.52;8.60;;;0.10;99.90;;;;;;5072486;28;20037;-74
2023/01/18 05:55:35;;;;;;;16.90;9.07;;;0.30;99.90;;;;;;5073741;28;20090;-74
2023/01/18 05:58:01;;;;;;;15.13;8.68;;;0.20;99.90;;;;;;5073722;28;20044;-74
2023/01/18 06:00:27;;;;;;;12.50;8.52;;;0.10;99.90;;;;;;5073581;28;20105;-74
2023/01/18 06:02:53;;;;;;;14.15;8.43;;;0.10;99.90;;;;;;5072951;28;20498;-74
2023/01/18 06:05:20;;;;;;;14.20;10.02;;;0.00;99.90;;;;;;5073522;28;20128;-74
2023/01/18 06:07:48;;;;;;;14.55;9.95;;;0.00;99.90;;;;;;5073429;28;20101;-74
2023/01/18 06:10:15;;;;;;;12.93;8.18;;;0.10;99.90;;;;;;5056642;28;20032;-74
2023/01/18 06:12:41;;;;;;;11.48;8.80;;;0.20;99.90;;;;;;5072830;28;20090;-75
2023/01/18 06:15:07;;;;;;;11.38;9.23;;;0.10;99.90;;;;;;5073675;28;20490;-74
2023/01/18 06:17:34;;;;;;;13.52;8.98;;;0.20;99.90;;;;;;5056935;28;20047;-74
2023/01/18 06:20:00;;;;;;;14.93;9.23;;;0.10;99.90;;;;;;5074296;28;20040;-74
2023/01/18 06:22:25;;;;;;;12.70;9.52;;;0.10;99.90;;;;;;5072424;28;20081;-74
2023/01/18 06:24:51;;;;;;;13.45;8.32;;;0.10;99.90;;;;;;5073410;28;20044;-74
2023/01/18 06:27:17;;;;;;;14.55;8.60;;;-0.10;99.90;;;;;;5074428;28;20486;-74
2023/01/18 06:29:42;;;;;;;14.75;8.18;;;0.10;99.90;;;;;;5072817;28;20384;-75
2023/01/18 06:32:08;;;;;;;14.23;9.18;;;0.00;99.90;;;;;;5056382;28;20174;-74
2023/01/18 06:34:36;;;;;;;15.95;8.85;;;-0.10;99.90;;;;;;5072038;28;20059;-74
2023/01/18 06:37:02;;;;;;;12.38;8.00;;;-0.10;99.90;;;;;;5073163;28;20040;-74
2023/01/18 06:39:28;;;;;;;11.93;8.57;;;0.00;99.90;;;;;;5072814;28;20409;-74
2023/01/18 06:41:53;;;;;;;12.70;8.32;;;-0.10;99.90;;;;;;5073090;28;20032;-74
2023/01/18 06:44:19;;;;;;;13.65;8.85;;;-0.10;99.90;;;;;;5073460;28;20041;-74
2023/01/18 06:46:45;;;;;;;14.07;8.10;;;0.00;99.90;;;;;;5073990;28;20536;-75
2023/01/18 06:49:11;;;;;;;11.45;7.95;;;0.00;99.90;;;;;;5072572;28;20414;-74
2023/01/18 06:51:38;;;;;;;13.82;9.05;;;-0.10;99.90;;;;;;5072776;28;20076;-74
2023/01/18 06:54:04;;;;;;;13.45;7.95;;;-0.10;99.90;;;;;;5055624;28;20040;-74
2023/01/18 06:56:29;;;;;;;14.82;8.75;;;0.10;99.90;;;;;;5056077;28;20045;-74
2023/01/18 06:58:57;;;;;;;12.30;7.88;;;0.10;99.90;;;;;;5072347;28;20044;-74
2023/01/18 07:01:24;;;;;;;10.85;8.27;;;0.10;99.90;;;;;;5072500;28;20052;-74
2023/01/18 07:03:50;;;;;;;11.65;8.05;;;-0.10;99.90;;;;;;5071310;28;20045;-74
2023/01/18 07:06:15;;;;;;;14.48;8.30;;;-0.10;99.90;;;;;;5073854;28;20085;-74
2023/01/18 07:08:41;;;;;;;12.02;7.45;;;0.00;99.90;;;;;;5072531;28;20185;-74
2023/01/18 07:11:09;;;;;;;10.20;7.82;;;-0.20;99.90;;;;;;5072320;28;20051;-74
2023/01/18 07:13:38;;;;;;;12.05;7.80;;;-0.20;99.90;;;;;;5071881;28;20051;-74
2023/01/18 07:16:05;;;;;;;15.65;8.57;;;-0.20;99.90;;;;;;5072437;28;20053;-74
2023/01/18 07:18:30;;;;;;;9.40;7.63;;;-0.10;99.90;;;;;;5055444;28;20056;-74
2023/01/18 07:20:58;;;;;;;14.27;8.38;;;-0.10;99.90;;;;;;5055671;28;20044;-75
2023/01/18 07:23:24;;;;;;;15.77;8.18;;;0.00;99.90;;;;;;5071646;28;20048;-74
2023/01/18 07:26:03;;;;;;;10.68;7.95;;;-0.10;99.90;;;;;;5055309;28;20048;-74
2023/01/18 07:30:56;;;;;;;14.75;8.32;;;-0.10;99.90;;;;;;5052521;23;20061;-75
2023/01/18 07:33:22;;;;;;;16.55;9.15;;;0.00;99.90;;;;;;5014935;28;20423;-75
2023/01/18 07:35:50;;;;;;;12.52;8.00;;;0.00;99.90;;;;;;5015607;28;20073;-75
2023/01/18 07:38:15;;;;;;;12.18;8.10;;;-0.20;99.90;;;;;;5032241;28;20047;-76
2023/01/18 07:40:41;;;;;;;15.25;7.80;;;-0.20;99.90;;;;;;5015321;28;20128;-76
2023/01/18 07:43:06;;;;;;;13.68;8.98;;;0.00;99.90;;;;;;5031575;28;20045;-76
2023/01/18 07:45:32;;;;;;;14.27;7.88;;;-0.10;99.90;;;;;;5031863;28;20045;-75
2023/01/18 07:47:57;;;;;;;11.45;6.53;;;0.00;99.90;;;;;;5031717;28;20467;-76
2023/01/18 07:50:23;;;;;;;12.45;8.50;;;0.10;99.90;;;;;;5031736;28;20205;-76
2023/01/18 07:52:48;;;;;;;11.00;7.55;;;-0.10;99.90;;;;;;5030940;28;20499;-76
2023/01/18 07:55:14;;;;;;;12.55;7.53;;;0.10;99.90;;;;;;5014718;28;20030;-76
2023/01/18 07:57:39;;;;;;;24.80;9.15;;;0.10;99.90;;;;;;5031951;28;20041;-75
2023/01/18 08:00:06;;;;;;;13.80;7.55;;;0.20;99.90;;;;;;5030920;28;20041;-75
2023/01/18 08:02:32;;;;;;;11.68;7.05;;;0.10;99.90;;;;;;5030646;28;20176;-75
2023/01/18 08:04:58;;;;;;;12.10;6.85;;;0.10;99.90;;;;;;5015325;28;20048;-75
2023/01/18 08:07:24;;;;;;;14.60;7.82;;;0.00;99.90;;;;;;5031930;28;20041;-75
2023/01/18 08:09:50;;;;;;;14.23;7.97;;;0.10;99.90;;;;;;5015031;28;20046;-75
2023/01/18 08:12:17;;;;;;;14.32;8.45;;;0.30;99.90;;;;;;5031276;28;20045;-75
2023/01/18 08:14:44;;;;;;;11.38;7.90;;;0.40;99.90;;;;;;5030633;28;20041;-75
2023/01/18 08:17:09;;;;;;;13.60;8.35;;;0.20;99.90;;;;;;5031695;28;20034;-75
2023/01/18 08:19:35;;;;;;;10.55;7.40;;;0.50;99.90;;;;;;5031056;28;20044;-75
2023/01/18 08:22:01;;;;;;;10.45;6.90;;;0.50;99.90;;;;;;5030996;28;20076;-75
2023/01/18 08:24:26;;;;;;;10.80;7.95;;;0.60;99.90;;;;;;5030127;28;20539;-75
2023/01/18 08:26:52;;;;;;;13.07;8.50;;;0.50;99.90;;;;;;5031009;28;20538;-75
2023/01/18 08:29:17;;;;;;;10.88;7.40;;;0.50;99.90;;;;;;5014332;28;20046;-75
2023/01/18 08:31:43;;;;;;;14.25;7.70;;;0.50;99.90;;;;;;5030510;28;20120;-75
2023/01/18 08:34:08;;;;;;;11.93;6.68;;;0.40;99.90;;;;;;5030497;28;20037;-76
2023/01/18 08:36:34;;;;;;;9.27;6.05;;;0.50;99.90;;;;;;5030953;28;20045;-75
2023/01/18 08:39:00;;;;;;;13.45;6.63;;;0.60;99.90;;;;;;5030734;28;20403;-75
2023/01/18 08:41:29;;;;;;;12.75;7.78;;;0.50;99.90;;;;;;5014517;28;20041;-75
2023/01/18 08:43:57;;;;;;;8.52;5.72;;;0.60;99.90;;;;;;5030563;28;20072;-73
2023/01/18 08:46:23;;;;;;;8.85;6.38;;;0.70;99.90;;;;;;5030606;28;20060;-73
2023/01/18 08:48:54;;;;;;;13.48;7.10;;;0.70;99.90;;;;;;5031026;28;20052;-73
2023/01/18 08:51:22;;;;;;;11.10;7.10;;;0.70;99.90;;;;;;5014312;28;20037;-73
2023/01/18 08:53:53;;;;;;;10.35;7.72;;;0.70;99.90;;;;;;5030047;28;20045;-73
2023/01/18 08:56:19;;;;;;;10.05;7.35;;;0.60;99.90;;;;;;5030639;28;20042;-73
2023/01/18 08:58:46;;;;;;;9.65;7.20;;;0.70;99.90;;;;;;5030907;28;20441;-73
2023/01/18 09:01:11;;;;;;;11.60;7.03;;;0.80;99.90;;;;;;5014319;28;20073;-73
2023/01/18 09:03:37;;;;;;;12.27;7.50;;;0.70;99.90;;;;;;5029939;28;20143;-73
2023/01/18 09:06:07;;;;;;;12.18;7.20;;;0.80;99.90;;;;;;5030669;28;20041;-73
2023/01/18 09:08:32;;;;;;;9.98;7.38;;;0.90;99.90;;;;;;5030492;28;20072;-73
2023/01/18 09:11:06;;;;;;;13.20;9.63;;;0.80;99.90;;;;;;5030549;28;20079;-73
2023/01/18 09:13:32;;;;;;;13.00;7.80;;;0.80;99.90;;;;;;5029773;28;20408;-73
2023/01/18 09:16:04;;;;;;;13.50;6.95;;;0.90;99.90;;;;;;5030748;28;20415;-73
2023/01/18 09:18:30;;;;;;;13.15;8.55;;;0.90;99.90;;;;;;5014292;28;20055;-73
2023/01/18 09:21:03;;;;;;;11.98;7.72;;;0.90;99.90;;;;;;5030419;28;20128;-73
2023/01/18 09:23:29;;;;;;;14.93;8.13;;;0.90;99.90;;;;;;5029663;28;20446;-73
2023/01/18 09:26:04;;;;;;;10.20;7.32;;;0.90;99.90;;;;;;5029624;28;20048;-73
2023/01/18 09:28:30;;;;;;;14.68;9.07;;;0.90;99.90;;;;;;5030337;28;20151;-73
2023/01/18 09:31:01;;;;;;;16.23;7.65;;;1.10;99.90;;;;;;5013680;28;20069;-73
2023/01/18 09:33:27;;;;;;;12.75;8.20;;;0.90;99.90;;;;;;5029760;28;20396;-73
2023/01/18 09:35:54;;;;;;;12.32;8.65;;;1.00;99.90;;;;;;5030242;28;20042;-73
2023/01/18 09:38:20;;;;;;;14.02;8.32;;;1.00;99.90;;;;;;5030605;28;20434;-73
2023/01/18 09:40:46;;;;;;;14.13;8.45;;;1.20;99.90;;;;;;5030163;28;20041;-73
2023/01/18 09:43:42;;;;;;;12.55;8.30;;;1.00;99.90;;;;;;5029574;28;20041;-73
2023/01/18 09:46:18;;;;;;;15.13;8.45;;;1.20;99.90;;;;;;5029222;28;20411;-73
2023/01/18 09:48:48;;;;;;;12.10;7.25;;;1.10;99.90;;;;;;5030237;28;20034;-73
2023/01/18 09:51:42;;;;;;;14.02;8.23;;;1.10;99.90;;;;;;5030143;28;20041;-73
2023/01/18 09:54:24;;;;;;;12.15;8.93;;;1.20;99.90;;;;;;5029273;28;20047;-73
2023/01/18 09:57:06;;;;;;;13.32;8.65;;;1.10;99.90;;;;;;5030216;28;20045;-73
2023/01/18 09:59:52;;;;;;;14.63;8.65;;;1.20;99.90;;;;;;5013576;28;20104;-73
2023/01/18 10:02:24;;;;;;;10.65;7.75;;;1.20;99.90;;;;;;5031281;28;20037;-73
2023/01/18 10:04:57;;;;;;;18.77;10.23;;;1.20;99.90;;;;;;5013858;28;20107;-73
2023/01/18 10:07:26;;;;;;;15.20;9.48;;;1.40;99.90;;;;;;5031685;28;20038;-73
2023/01/18 10:09:57;;;;;;;9.70;7.13;;;1.30;99.90;;;;;;5040582;28;20411;-73
2023/01/18 10:12:37;;;;;;;12.40;9.07;;;1.40;99.90;;;;;;5020616;28;20073;-73
2023/01/18 10:15:16;;;;;;;11.57;8.00;;;1.30;99.90;;;;;;5030479;28;20060;-73
2023/01/18 10:17:43;;;;;;;13.70;8.93;;;1.40;99.90;;;;;;5013897;28;20038;-73
2023/01/18 10:20:35;;;;;;;12.80;8.25;;;1.40;99.90;;;;;;5031097;28;20215;-73
2023/01/18 10:23:11;;;;;;;14.00;8.52;;;1.40;99.90;;;;;;5029052;28;20073;-73
2023/01/18 10:25:45;;;;;;;14.68;10.02;;;1.50;99.90;;;;;;5029903;28;20095;-73
2023/01/18 10:28:35;;;;;;;13.48;7.50;;;1.70;99.90;;;;;;5029789;28;20563;-73
2023/01/18 10:31:25;;;;;;;20.27;9.57;;;1.70;99.90;;;;;;5029801;28;20040;-73
2023/01/18 10:33:54;;;;;;;15.75;8.80;;;1.60;99.90;;;;;;5029244;28;20496;-73
2023/01/18 10:36:25;;;;;;;11.95;8.18;;;1.70;99.90;;;;;;5029816;28;20030;-73
2023/01/18 10:38:53;;;;;;;15.02;7.97;;;1.70;99.90;;;;;;5032411;28;20034;-73
2023/01/18 10:41:24;;;;;;;14.35;8.15;;;1.80;99.90;;;;;;5033577;28;20438;-73
2023/01/18 10:43:50;;;;;;;10.35;7.80;;;1.90;99.90;;;;;;5032526;28;20120;-73
2023/01/18 10:46:19;;;;;;;11.80;8.35;;;1.80;99.90;;;;;;5033592;28;20077;-73
2023/01/18 10:48:51;;;;;;;13.57;8.30;;;1.80;99.90;;;;;;5033217;28;20045;-73
2023/01/18 10:51:29;;;;;;;12.50;8.10;;;2.00;99.90;;;;;;5033110;28;20033;-73
2023/01/18 10:53:55;;;;;;;12.90;8.15;;;2.00;99.90;;;;;;5032335;28;20081;-73
2023/01/18 10:56:25;;;;;;;15.05;8.80;;;2.00;99.90;;;;;;5033294;28;20534;-73
2023/01/18 10:58:54;;;;;;;14.38;7.72;;;1.90;99.90;;;;;;5032845;28;20029;-73
2023/01/18 11:01:27;;;;;;;12.05;7.60;;;2.10;99.90;;;;;;5016481;28;20045;-73
2023/01/18 11:04:05;;;;;;;10.80;7.57;;;2.10;99.90;;;;;;5015722;28;20052;-73
2023/01/18 11:06:50;;;;;;;11.65;8.02;;;2.00;99.90;;;;;;5016797;28;20397;-73
2023/01/18 11:09:58;;;;;;;10.88;7.40;;;2.20;99.90;;;;;;5032652;28;20041;-73
2023/01/18 11:12:46;;;;;;;12.93;8.10;;;2.30;99.90;;;;;;5031992;28;20134;-73
2023/01/18 11:15:12;;;;;;;11.52;7.32;;;2.30;99.90;;;;;;5032733;28;20052;-74
2023/01/18 11:17:38;;;;;;;14.98;7.30;;;2.30;99.90;;;;;;5016422;28;20045;-73
2023/01/18 11:20:05;;;;;;;15.00;8.18;;;2.30;99.90;;;;;;5032750;28;20038;-73
2023/01/18 11:22:32;;;;;;;13.45;7.35;;;2.40;99.90;;;;;;5031798;28;20056;-73
2023/01/18 11:24:58;;;;;;;13.25;7.60;;;2.30;99.90;;;;;;5032778;28;20407;-73
2023/01/18 11:27:24;;;;;;;12.75;8.63;;;2.50;99.90;;;;;;5033893;28;20045;-73
2023/01/18 11:29:50;;;;;;;12.02;7.63;;;2.40;99.90;;;;;;5032189;28;20033;-73
2023/01/18 11:32:24;;;;;;;11.80;7.85;;;2.50;99.90;;;;;;5032101;28;20107;-73
2023/01/18 11:34:58;;;;;;;14.27;8.45;;;2.50;99.90;;;;;;5032501;28;20438;-73
2023/01/18 11:37:24;;;;;;;10.48;7.32;;;2.60;99.90;;;;;;5015703;28;20076;-73
2023/01/18 11:39:49;;;;;;;11.60;6.82;;;2.60;99.90;;;;;;5033509;28;20073;-73
2023/01/18 11:42:31;;;;;;;13.82;7.53;;;2.80;99.90;;;;;;5031886;28;20410;-73
2023/01/18 11:44:56;;;;;;;10.18;6.22;;;2.70;99.90;;;;;;5032052;28;20045;-73
2023/01/18 11:47:29;;;;;;;10.07;6.68;;;2.80;99.90;;;;;;5032175;28;20567;-73
2023/01/18 11:49:58;;;;;;;9.52;7.10;;;2.80;99.90;;;;;;5031319;28;20037;-73
2023/01/18 11:52:41;;;;;;;13.77;6.80;;;2.90;99.90;;;;;;5031404;28;20454;-73
2023/01/18 11:55:22;;;;;;;9.70;6.38;;;3.00;99.90;;;;;;5015519;28;20041;-73
2023/01/18 11:57:48;;;;;;;7.45;6.20;;;2.90;99.90;;;;;;5032137;28;20033;-73
2023/01/18 12:00:15;;;;;;;8.23;5.45;;;2.90;99.90;;;;;;5031842;28;20038;-73
2023/01/18 12:02:56;;;;;;;14.15;6.90;;;3.00;99.90;;;;;;5031163;28;20053;-73
2023/01/18 12:05:51;;;;;;;7.57;5.80;;;3.00;99.90;;;;;;5031943;28;20033;-73
2023/01/18 12:08:26;;;;;;;9.82;6.45;;;3.10;99.90;;;;;;5031819;28;20043;-71
2023/01/18 12:11:23;;;;;;;6.70;5.00;;;3.40;99.90;;;;;;5030849;28;20041;-71
2023/01/18 12:14:00;;;;;;;14.23;5.15;;;3.50;99.90;;;;;;5030770;28;20053;-71
2023/01/18 12:16:43;;;;;;;14.63;5.65;;;3.80;99.90;;;;;;5031587;28;20117;-71
2023/01/18 12:19:20;;;;;;;8.47;5.00;;;4.00;99.90;;;;;;5031137;28;20042;-71
2023/01/18 12:22:21;;;;;;;10.95;5.07;;;4.10;99.90;;;;;;5031473;28;20330;-71
2023/01/18 12:24:49;;;;;;;11.55;6.97;;;4.20;99.90;;;;;;5014821;28;20514;-71
2023/01/18 12:27:33;;;;;;;8.90;4.68;;;4.30;99.90;;;;;;5030773;28;20045;-71
2023/01/18 12:30:26;;;;;;;6.97;4.85;;;4.40;99.90;;;;;;5029743;28;20033;-72
2023/01/18 12:33:03;;;;;;;6.57;4.57;;;4.40;99.90;;;;;;4994382;28;20038;-72
2023/01/18 12:36:05;;;;;;;7.90;4.68;;;4.50;99.90;;;;;;5011401;28;20530;-76
2023/01/18 12:38:31;;;;;;;8.07;4.65;;;4.70;99.90;;;;;;4995238;28;20053;-71
2023/01/18 12:41:16;;;;;;;11.93;5.15;;;4.70;99.90;;;;;;5011559;28;20168;-71
2023/01/18 12:44:27;;;;;;;8.27;4.45;;;4.70;99.90;;;;;;5011904;28;20050;-70
2023/01/18 12:46:57;;;;;;;9.15;4.50;;;4.70;99.90;;;;;;5011859;28;20059;-70
2023/01/18 12:49:26;;;;;;;9.85;4.30;;;4.50;99.90;;;;;;5011058;28;20524;-70
2023/01/18 12:51:55;;;;;;;8.88;4.60;;;4.60;99.90;;;;;;5011027;28;20104;-70
2023/01/18 12:54:45;;;;;;;5.95;4.22;;;4.50;99.90;;;;;;5011762;28;20477;-70
2023/01/18 12:57:12;;;;;;;6.05;4.00;;;4.50;99.90;;;;;;5012405;28;20108;-70
2023/01/18 12:59:55;;;;;;;6.35;3.83;;;4.50;99.90;;;;;;5012267;28;20038;-70
2023/01/18 13:02:37;;;;;;;8.77;4.05;;;4.60;99.90;;;;;;5010725;28;20057;-70
2023/01/18 13:05:31;;;;;;;8.75;3.88;;;4.50;99.90;;;;;;5011002;28;20044;-70
2023/01/18 13:08:05;;;;;;;6.13;4.00;;;4.50;99.90;;;;;;5012249;28;20042;-72
2023/01/18 13:10:33;;;;;;;6.03;3.88;;;4.50;99.90;;;;;;5010852;28;20242;-72
2023/01/18 13:13:02;;;;;;;6.30;4.47;;;4.50;99.90;;;;;;5010325;28;20046;-72
2023/01/18 13:15:50;;;;;;;8.90;4.05;;;4.50;99.90;;;;;;5011117;28;20392;-72
2023/01/18 13:18:46;;;;;;;11.73;5.32;;;4.60;99.90;;;;;;5011086;28;20030;-72
2023/01/18 13:21:24;;;;;;;10.10;5.43;;;4.50;99.90;;;;;;5002140;28;20054;-72
2023/01/18 13:23:58;;;;;;;7.22;5.00;;;4.50;99.90;;;;;;5009935;28;20037;-72
2023/01/18 13:26:32;;;;;;;5.95;4.32;;;4.50;99.90;;;;;;4994347;28;20033;-72
2023/01/18 13:29:21;;;;;;;9.60;4.55;;;4.50;99.90;;;;;;5034631;23;20038;-72
2023/01/18 13:31:47;;;;;;;7.80;4.93;;;4.50;99.90;;;;;;4980796;28;20473;-69
2023/01/18 13:34:28;;;;;;;8.40;4.65;;;4.40;99.90;;;;;;4982065;28;20070;-68
2023/01/18 13:36:55;;;;;;;8.75;4.82;;;4.30;99.90;;;;;;4992252;28;20035;-69
2023/01/18 13:39:22;;;;;;;7.25;5.03;;;4.30;99.90;;;;;;4991913;28;20073;-69
2023/01/18 13:42:02;;;;;;;7.28;5.47;;;4.20;99.90;;;;;;4992080;28;20054;-69
2023/01/18 13:44:44;;;;;;;7.30;4.75;;;4.20;99.90;;;;;;4991454;28;20053;-69